Disclaimer

Please do not use the information listed here in-flight or in-navigation, as they are not provided to us by the airports but are provided by volunteers, so they might be outdated.

Search


Regions


Airport information page

Radio informations:
Tower (TWR) - 119.7 MHz
Ground (GND) - 121.725 MHz
Automatic Terminal Information Service (ATIS) - 118.375 MHz
Approach (APP) - 124.375 MHz

Airport informations:
Latitude: 55° 02' 15.00" N
Longitude: 001° 41' 30.00" W
Elevation: 266 feet - 81 meters
Operating hours: N/A
Operating agency: Civil government, landing fees and diplomatic clearance may be required
Timezone: UTC 0(+1DT)
Fuel: Jet A1, without icing nhibitor.

100/130 MIL Spec, low lead, aviation gasoline (BLUE)

Runway information:
07/25 - 7642 x 151 feet< - >2329 x 46 meters

Recent METARs:
EGNT 202150Z 06015KT 9999 -SHRA FEW010 BKN025 06/04 Q1013
EGNT 202220Z 06013KT 9999 FEW015 BKN030 06/04 Q1013
EGNT 202250Z 07017KT 9999 FEW015 BKN028 07/04 Q1012

Airport on the map: